sensor_id;sensor_type;location;lat;lon;timestamp;pressure;altitude;pressure_sealevel;temperature;humidity
23303;BME280;11820;48.738;9.092;2023-05-20T00:01:30;96400.75;;;12.17;100.00
23303;BME280;11820;48.738;9.092;2023-05-20T00:03:56;96405.94;;;12.10;100.00
23303;BME280;11820;48.738;9.092;2023-05-20T00:06:21;96404.94;;;12.18;100.00
23303;BME280;11820;48.738;9.092;2023-05-20T00:08:47;96395.56;;;12.17;100.00
23303;BME280;11820;48.738;9.092;2023-05-20T00:11:12;96398.75;;;12.19;100.00
23303;BME280;11820;48.738;9.092;2023-05-20T00:13:37;96401.56;;;12.24;100.00
23303;BME280;11820;48.738;9.092;2023-05-20T00:16:03;96405.53;;;12.26;100.00
23303;BME280;11820;48.738;9.092;2023-05-20T00:18:29;96397.38;;;12.23;100.00
23303;BME280;11820;48.738;9.092;2023-05-20T00:20:54;96395.97;;;12.14;100.00
23303;BME280;11820;48.738;9.092;2023-05-20T00:23:20;96399.16;;;12.16;100.00
23303;BME280;11820;48.738;9.092;2023-05-20T00:25:45;96393.56;;;12.19;100.00
23303;BME280;11820;48.738;9.092;2023-05-20T00:28:10;96392.38;;;12.15;100.00
23303;BME280;11820;48.738;9.092;2023-05-20T00:30:39;96393.56;;;12.19;100.00
23303;BME280;11820;48.738;9.092;2023-05-20T00:33:05;96382.00;;;12.21;100.00
23303;BME280;11820;48.738;9.092;2023-05-20T00:35:30;96387.19;;;12.28;100.00
23303;BME280;11820;48.738;9.092;2023-05-20T00:37:55;96389.97;;;12.33;100.00
23303;BME280;11820;48.738;9.092;2023-05-20T00:40:21;96391.19;;;12.24;100.00
23303;BME280;11820;48.738;9.092;2023-05-20T00:42:47;96388.97;;;12.08;100.00
23303;BME280;11820;48.738;9.092;2023-05-20T00:45:12;96396.97;;;12.13;100.00
23303;BME280;11820;48.738;9.092;2023-05-20T00:47:38;96393.97;;;12.22;100.00
23303;BME280;11820;48.738;9.092;2023-05-20T00:50:04;96390.78;;;12.27;100.00
23303;BME280;11820;48.738;9.092;2023-05-20T00:52:30;96397.56;;;12.21;100.00
23303;BME280;11820;48.738;9.092;2023-05-20T00:54:57;96386.41;;;12.27;100.00
23303;BME280;11820;48.738;9.092;2023-05-20T00:57:23;96391.97;;;12.18;100.00
23303;BME280;11820;48.738;9.092;2023-05-20T00:59:48;96383.78;;;12.14;100.00
23303;BME280;11820;48.738;9.092;2023-05-20T01:02:14;96381.00;;;12.29;100.00
23303;BME280;11820;48.738;9.092;2023-05-20T01:04:40;96383.00;;;12.33;100.00
23303;BME280;11820;48.738;9.092;2023-05-20T01:07:11;96375.59;;;12.37;100.00
23303;BME280;11820;48.738;9.092;2023-05-20T01:09:36;96377.22;;;12.31;100.00
23303;BME280;11820;48.738;9.092;2023-05-20T01:12:09;96371.63;;;12.41;100.00
23303;BME280;11820;48.738;9.092;2023-05-20T01:14:42;96372.63;;;12.40;100.00
23303;BME280;11820;48.738;9.092;2023-05-20T01:17:11;96372.22;;;12.36;100.00
23303;BME280;11820;48.738;9.092;2023-05-20T01:19:42;96373.63;;;12.32;100.00
23303;BME280;11820;48.738;9.092;2023-05-20T01:22:09;96375.81;;;12.35;100.00
23303;BME280;11820;48.738;9.092;2023-05-20T01:24:45;96365.63;;;12.40;100.00
23303;BME280;11820;48.738;9.092;2023-05-20T01:27:14;96372.81;;;12.38;100.00
23303;BME280;11820;48.738;9.092;2023-05-20T01:29:40;96370.63;;;12.35;100.00
23303;BME280;11820;48.738;9.092;2023-05-20T01:32:22;96366.44;;;12.41;100.00
23303;BME280;11820;48.738;9.092;2023-05-20T01:34:51;96361.03;;;12.49;100.00
23303;BME280;11820;48.738;9.092;2023-05-20T01:37:18;96359.84;;;12.45;100.00
23303;BME280;11820;48.738;9.092;2023-05-20T01:39:44;96360.44;;;12.47;100.00
23303;BME280;11820;48.738;9.092;2023-05-20T01:42:10;96364.03;;;12.39;100.00
23303;BME280;11820;48.738;9.092;2023-05-20T01:44:38;96361.03;;;12.49;100.00
23303;BME280;11820;48.738;9.092;2023-05-20T01:47:03;96362.81;;;12.55;100.00
23303;BME280;11820;48.738;9.092;2023-05-20T01:49:29;96355.25;;;12.53;100.00
23303;BME280;11820;48.738;9.092;2023-05-20T01:51:54;96357.25;;;12.51;100.00
23303;BME280;11820;48.738;9.092;2023-05-20T01:54:19;96362.41;;;12.58;100.00
23303;BME280;11820;48.738;9.092;2023-05-20T01:56:45;96361.22;;;12.54;100.00
23303;BME280;11820;48.738;9.092;2023-05-20T01:59:11;96358.44;;;12.49;100.00
23303;BME280;11820;48.738;9.092;2023-05-20T02:01:37;96361.22;;;12.47;100.00
23303;BME280;11820;48.738;9.092;2023-05-20T02:04:02;96353.66;;;12.46;100.00
23303;BME280;11820;48.738;9.092;2023-05-20T02:06:27;96347.69;;;12.39;100.00
23303;BME280;11820;48.738;9.092;2023-05-20T02:08:53;96346.47;;;12.41;100.00
23303;BME280;11820;48.738;9.092;2023-05-20T02:11:18;96347.28;;;12.29;100.00
23303;BME280;11820;48.738;9.092;2023-05-20T02:13:43;96345.28;;;12.37;100.00
23303;BME280;11820;48.738;9.092;2023-05-20T02:16:09;96334.91;;;12.31;100.00
23303;BME280;11820;48.738;9.092;2023-05-20T02:18:34;96345.69;;;12.34;100.00
23303;BME280;11820;48.738;9.092;2023-05-20T02:21:03;96351.28;;;12.31;100.00
23303;BME280;11820;48.738;9.092;2023-05-20T02:23:32;96347.09;;;12.24;100.00
23303;BME280;11820;48.738;9.092;2023-05-20T02:25:58;96354.47;;;12.27;100.00
23303;BME280;11820;48.738;9.092;2023-05-20T02:28:24;96345.50;;;12.23;100.00
23303;BME280;11820;48.738;9.092;2023-05-20T02:30:49;96348.09;;;12.16;100.00
23303;BME280;11820;48.738;9.092;2023-05-20T02:33:20;96351.69;;;12.22;100.00
23303;BME280;11820;48.738;9.092;2023-05-20T02:35:45;96346.91;;;12.19;100.00
23303;BME280;11820;48.738;9.092;2023-05-20T02:38:11;96348.50;;;12.20;100.00
23303;BME280;11820;48.738;9.092;2023-05-20T02:40:37;96352.09;;;12.19;100.00
23303;BME280;11820;48.738;9.092;2023-05-20T02:43:03;96344.50;;;12.11;100.00
23303;BME280;11820;48.738;9.092;2023-05-20T02:45:28;96342.13;;;12.09;100.00
23303;BME280;11820;48.738;9.092;2023-05-20T02:47:54;96354.50;;;12.14;100.00
23303;BME280;11820;48.738;9.092;2023-05-20T02:50:19;96343.72;;;12.10;100.00
23303;BME280;11820;48.738;9.092;2023-05-20T02:52:44;96345.72;;;12.15;100.00
23303;BME280;11820;48.738;9.092;2023-05-20T02:55:10;96348.50;;;12.07;100.00
23303;BME280;11820;48.738;9.092;2023-05-20T02:57:36;96347.31;;;12.03;100.00
23303;BME280;11820;48.738;9.092;2023-05-20T03:00:07;96350.69;;;12.10;100.00
23303;BME280;11820;48.738;9.092;2023-05-20T03:02:37;96350.09;;;12.08;100.00
23303;BME280;11820;48.738;9.092;2023-05-20T03:05:02;96346.91;;;12.06;100.00
23303;BME280;11820;48.738;9.092;2023-05-20T03:07:29;96359.25;;;11.97;100.00
23303;BME280;11820;48.738;9.092;2023-05-20T03:09:56;96347.72;;;12.00;100.00
23303;BME280;11820;48.738;9.092;2023-05-20T03:12:23;96347.72;;;12.06;100.00
23303;BME280;11820;48.738;9.092;2023-05-20T03:14:50;96337.72;;;12.10;100.00
23303;BME280;11820;48.738;9.092;2023-05-20T03:17:19;96344.94;;;12.01;100.00
23303;BME280;11820;48.738;9.092;2023-05-20T03:19:44;96343.72;;;12.04;100.00
23303;BME280;11820;48.738;9.092;2023-05-20T03:22:10;96340.94;;;11.99;100.00
23303;BME280;11820;48.738;9.092;2023-05-20T03:24:35;96345.94;;;12.00;100.00
23303;BME280;11820;48.738;9.092;2023-05-20T03:27:01;96349.69;;;12.11;100.00
23303;BME280;11820;48.738;9.092;2023-05-20T03:29:26;96342.13;;;12.09;100.00
23303;BME280;11820;48.738;9.092;2023-05-20T03:31:51;96342.13;;;12.03;100.00
23303;BME280;11820;48.738;9.092;2023-05-20T03:34:16;96341.72;;;11.99;100.00
23303;BME280;11820;48.738;9.092;2023-05-20T03:36:42;96339.34;;;11.98;100.00
23303;BME280;11820;48.738;9.092;2023-05-20T03:39:07;96346.53;;;11.96;100.00
23303;BME280;11820;48.738;9.092;2023-05-20T03:41:32;96346.13;;;11.99;100.00
23303;BME280;11820;48.738;9.092;2023-05-20T03:43:58;96348.31;;;12.02;100.00
23303;BME280;11820;48.738;9.092;2023-05-20T03:46:23;96350.50;;;11.92;100.00
23303;BME280;11820;48.738;9.092;2023-05-20T03:48:48;96346.72;;;12.07;100.00
23303;BME280;11820;48.738;9.092;2023-05-20T03:51:14;96358.69;;;12.15;100.00
23303;BME280;11820;48.738;9.092;2023-05-20T03:53:39;96358.09;;;12.06;100.00
23303;BME280;11820;48.738;9.092;2023-05-20T03:56:05;96350.91;;;12.02;100.00
23303;BME280;11820;48.738;9.092;2023-05-20T03:58:30;96347.50;;;12.08;100.00
23303;BME280;11820;48.738;9.092;2023-05-20T04:00:55;96351.72;;;12.02;100.00
23303;BME280;11820;48.738;9.092;2023-05-20T04:03:21;96346.31;;;12.10;100.00
23303;BME280;11820;48.738;9.092;2023-05-20T04:05:47;96341.72;;;12.06;100.00
23303;BME280;11820;48.738;9.092;2023-05-20T04:08:13;96352.91;;;12.06;100.00
23303;BME280;11820;48.738;9.092;2023-05-20T04:10:41;96352.69;;;12.21;100.00
23303;BME280;11820;48.738;9.092;2023-05-20T04:13:07;96350.88;;;12.21;100.00
23303;BME280;11820;48.738;9.092;2023-05-20T04:15:34;96346.09;;;12.25;100.00
23303;BME280;11820;48.738;9.092;2023-05-20T04:18:01;96343.91;;;12.28;100.00
23303;BME280;11820;48.738;9.092;2023-05-20T04:20:26;96347.28;;;12.29;100.00
23303;BME280;11820;48.738;9.092;2023-05-20T04:22:51;96341.69;;;12.32;100.00
23303;BME280;11820;48.738;9.092;2023-05-20T04:25:18;96341.50;;;12.27;100.00
23303;BME280;11820;48.738;9.092;2023-05-20T04:27:43;96340.91;;;12.25;100.00
23303;BME280;11820;48.738;9.092;2023-05-20T04:30:09;96343.50;;;12.31;100.00
23303;BME280;11820;48.738;9.092;2023-05-20T04:32:35;96328.91;;;12.37;100.00
23303;BME280;11820;48.738;9.092;2023-05-20T04:35:00;96332.72;;;12.34;100.00
23303;BME280;11820;48.738;9.092;2023-05-20T04:37:27;96325.72;;;12.41;100.00
23303;BME280;11820;48.738;9.092;2023-05-20T04:39:52;96324.94;;;12.41;100.00
23303;BME280;11820;48.738;9.092;2023-05-20T04:42:18;96320.13;;;12.44;100.00
23303;BME280;11820;48.738;9.092;2023-05-20T04:44:44;96324.50;;;12.50;100.00
23303;BME280;11820;48.738;9.092;2023-05-20T04:47:13;96324.72;;;12.49;100.00
23303;BME280;11820;48.738;9.092;2023-05-20T04:49:38;96328.72;;;12.45;100.00
23303;BME280;11820;48.738;9.092;2023-05-20T04:52:04;96322.69;;;12.64;100.00
23303;BME280;11820;48.738;9.092;2023-05-20T04:54:30;96323.72;;;12.50;100.00
23303;BME280;11820;48.738;9.092;2023-05-20T04:56:57;96326.06;;;12.64;100.00
23303;BME280;11820;48.738;9.092;2023-05-20T04:59:22;96320.88;;;12.71;100.00
23303;BME280;11820;48.738;9.092;2023-05-20T05:01:47;96322.97;;;12.87;100.00
23303;BME280;11820;48.738;9.092;2023-05-20T05:04:12;96326.59;;;12.86;100.00
23303;BME280;11820;48.738;9.092;2023-05-20T05:06:38;96326.56;;;12.98;100.00
23303;BME280;11820;48.738;9.092;2023-05-20T05:09:03;96323.63;;;12.82;100.00
23303;BME280;11820;48.738;9.092;2023-05-20T05:11:29;96332.19;;;12.83;100.00
23303;BME280;11820;48.738;9.092;2023-05-20T05:13:55;96328.41;;;12.85;100.00
23303;BME280;11820;48.738;9.092;2023-05-20T05:16:21;96321.22;;;12.94;100.00
23303;BME280;11820;48.738;9.092;2023-05-20T05:18:46;96322.81;;;12.95;100.00
23303;BME280;11820;48.738;9.092;2023-05-20T05:21:11;96313.19;;;12.88;100.00
23303;BME280;11820;48.738;9.092;2023-05-20T05:23:37;96311.22;;;12.91;100.00
23303;BME280;11820;48.738;9.092;2023-05-20T05:26:02;96307.16;;;13.07;100.00
23303;BME280;11820;48.738;9.092;2023-05-20T05:28:27;96308.72;;;13.15;100.00
23303;BME280;11820;48.738;9.092;2023-05-20T05:30:54;96307.13;;;13.14;100.00
23303;BME280;11820;48.738;9.092;2023-05-20T05:33:20;96303.66;;;13.26;100.00
23303;BME280;11820;48.738;9.092;2023-05-20T05:35:45;96306.31;;;13.13;100.00
23303;BME280;11820;48.738;9.092;2023-05-20T05:38:11;96304.38;;;13.09;100.00
23303;BME280;11820;48.738;9.092;2023-05-20T05:40:36;96296.53;;;13.15;100.00
23303;BME280;11820;48.738;9.092;2023-05-20T05:43:01;96298.34;;;13.08;100.00
23303;BME280;11820;48.738;9.092;2023-05-20T05:45:27;96290.84;;;13.31;100.00
23303;BME280;11820;48.738;9.092;2023-05-20T05:47:53;96288.94;;;13.45;100.00
23303;BME280;11820;48.738;9.092;2023-05-20T05:50:18;96287.16;;;13.45;100.00
23303;BME280;11820;48.738;9.092;2023-05-20T05:52:44;96299.72;;;13.48;100.00
23303;BME280;11820;48.738;9.092;2023-05-20T05:55:10;96293.53;;;13.49;100.00
23303;BME280;11820;48.738;9.092;2023-05-20T05:57:35;96295.13;;;13.50;100.00
23303;BME280;11820;48.738;9.092;2023-05-20T06:00:00;96292.91;;;13.54;100.00
23303;BME280;11820;48.738;9.092;2023-05-20T06:02:26;96292.28;;;13.52;100.00
23303;BME280;11820;48.738;9.092;2023-05-20T06:04:51;96301.44;;;13.61;100.00
23303;BME280;11820;48.738;9.092;2023-05-20T06:07:17;96294.84;;;13.58;100.00
23303;BME280;11820;48.738;9.092;2023-05-20T06:09:43;96291.00;;;13.67;100.00
23303;BME280;11820;48.738;9.092;2023-05-20T06:12:08;96287.56;;;13.73;100.00
23303;BME280;11820;48.738;9.092;2023-05-20T06:14:33;96293.91;;;13.77;100.00
23303;BME280;11820;48.738;9.092;2023-05-20T06:16:59;96300.97;;;13.70;100.00
23303;BME280;11820;48.738;9.092;2023-05-20T06:19:24;96294.31;;;13.81;100.00
23303;BME280;11820;48.738;9.092;2023-05-20T06:21:50;96299.00;;;13.90;100.00
23303;BME280;11820;48.738;9.092;2023-05-20T06:24:15;96287.00;;;13.89;100.00
23303;BME280;11820;48.738;9.092;2023-05-20T06:26:40;96288.44;;;14.10;100.00
23303;BME280;11820;48.738;9.092;2023-05-20T06:29:06;96285.03;;;14.09;100.00
23303;BME280;11820;48.738;9.092;2023-05-20T06:31:31;96288.13;;;14.24;100.00
23303;BME280;11820;48.738;9.092;2023-05-20T06:33:56;96281.34;;;14.23;100.00
23303;BME280;11820;48.738;9.092;2023-05-20T06:36:21;96275.91;;;14.25;100.00
23303;BME280;11820;48.738;9.092;2023-05-20T06:38:47;96284.09;;;14.28;100.00
23303;BME280;11820;48.738;9.092;2023-05-20T06:41:12;96287.19;;;14.19;100.00
23303;BME280;11820;48.738;9.092;2023-05-20T06:43:37;96285.59;;;14.11;100.00
23303;BME280;11820;48.738;9.092;2023-05-20T06:46:04;96277.72;;;14.24;100.00
23303;BME280;11820;48.738;9.092;2023-05-20T06:48:30;96281.09;;;14.25;100.00
23303;BME280;11820;48.738;9.092;2023-05-20T06:50:55;96277.44;;;14.32;100.00
23303;BME280;11820;48.738;9.092;2023-05-20T06:53:21;96276.94;;;14.42;100.00
23303;BME280;11820;48.738;9.092;2023-05-20T06:55:46;96272.94;;;14.39;100.00
23303;BME280;11820;48.738;9.092;2023-05-20T06:58:11;96275.44;;;14.52;100.00
23303;BME280;11820;48.738;9.092;2023-05-20T07:00:37;96277.16;;;14.58;100.00
23303;BME280;11820;48.738;9.092;2023-05-20T07:03:03;96276.84;;;14.66;100.00
23303;BME280;11820;48.738;9.092;2023-05-20T07:05:28;96275.84;;;14.67;100.00
23303;BME280;11820;48.738;9.092;2023-05-20T07:07:53;96271.00;;;14.70;100.00
23303;BME280;11820;48.738;9.092;2023-05-20T07:10:19;96266.50;;;14.77;100.00
23303;BME280;11820;48.738;9.092;2023-05-20T07:12:44;96262.31;;;14.76;100.00
23303;BME280;11820;48.738;9.092;2023-05-20T07:15:10;96252.06;;;14.93;100.00
23303;BME280;11820;48.738;9.092;2023-05-20T07:17:35;96248.28;;;15.07;100.00
23303;BME280;11820;48.738;9.092;2023-05-20T07:20:01;96235.47;;;15.05;100.00
23303;BME280;11820;48.738;9.092;2023-05-20T07:22:26;96248.50;;;15.05;100.00
23303;BME280;11820;48.738;9.092;2023-05-20T07:24:51;96252.13;;;15.04;100.00
23303;BME280;11820;48.738;9.092;2023-05-20T07:27:17;96249.31;;;15.06;100.00
23303;BME280;11820;48.738;9.092;2023-05-20T07:29:42;96244.69;;;15.08;100.00
23303;BME280;11820;48.738;9.092;2023-05-20T07:32:08;96242.31;;;15.18;100.00
23303;BME280;11820;48.738;9.092;2023-05-20T07:34:33;96246.66;;;15.24;100.00
23303;BME280;11820;48.738;9.092;2023-05-20T07:36:59;96250.00;;;15.13;100.00
23303;BME280;11820;48.738;9.092;2023-05-20T07:39:24;96256.38;;;15.17;100.00
23303;BME280;11820;48.738;9.092;2023-05-20T07:41:51;96247.28;;;15.08;100.00
23303;BME280;11820;48.738;9.092;2023-05-20T07:44:17;96235.31;;;15.18;100.00
23303;BME280;11820;48.738;9.092;2023-05-20T07:46:47;96239.41;;;15.26;100.00
23303;BME280;11820;48.738;9.092;2023-05-20T07:49:12;96229.94;;;15.43;100.00
23303;BME280;11820;48.738;9.092;2023-05-20T07:51:38;96235.88;;;15.50;100.00
23303;BME280;11820;48.738;9.092;2023-05-20T07:54:03;96234.06;;;15.50;100.00
23303;BME280;11820;48.738;9.092;2023-05-20T07:56:29;96238.22;;;15.40;100.00
23303;BME280;11820;48.738;9.092;2023-05-20T07:58:56;96232.56;;;15.43;100.00
23303;BME280;11820;48.738;9.092;2023-05-20T08:01:27;96233.41;;;15.66;100.00
23303;BME280;11820;48.738;9.092;2023-05-20T08:03:52;96231.91;;;15.47;100.00
23303;BME280;11820;48.738;9.092;2023-05-20T08:06:18;96225.44;;;15.38;100.00
23303;BME280;11820;48.738;9.092;2023-05-20T08:08:45;96227.81;;;15.51;100.00
23303;BME280;11820;48.738;9.092;2023-05-20T08:11:10;96227.72;;;15.58;100.00
23303;BME280;11820;48.738;9.092;2023-05-20T08:13:36;96228.28;;;15.60;100.00
23303;BME280;11820;48.738;9.092;2023-05-20T08:16:01;96233.75;;;15.58;100.00
23303;BME280;11820;48.738;9.092;2023-05-20T08:18:34;96241.78;;;15.57;100.00
23303;BME280;11820;48.738;9.092;2023-05-20T08:21:00;96249.81;;;15.55;100.00
23303;BME280;11820;48.738;9.092;2023-05-20T08:23:26;96241.34;;;15.83;100.00
23303;BME280;11820;48.738;9.092;2023-05-20T08:25:51;96243.63;;;15.91;100.00
23303;BME280;11820;48.738;9.092;2023-05-20T08:28:16;96256.88;;;15.78;100.00
23303;BME280;11820;48.738;9.092;2023-05-20T08:30:42;96258.09;;;15.64;100.00
23303;BME280;11820;48.738;9.092;2023-05-20T08:33:07;96252.78;;;15.70;100.00
23303;BME280;11820;48.738;9.092;2023-05-20T08:35:34;96252.25;;;15.91;100.00
23303;BME280;11820;48.738;9.092;2023-05-20T08:37:59;96244.41;;;15.91;100.00
23303;BME280;11820;48.738;9.092;2023-05-20T08:40:26;96255.63;;;15.92;100.00
23303;BME280;11820;48.738;9.092;2023-05-20T08:42:51;96257.22;;;15.93;100.00
23303;BME280;11820;48.738;9.092;2023-05-20T08:45:19;96258.03;;;16.05;100.00
23303;BME280;11820;48.738;9.092;2023-05-20T08:47:45;96256.09;;;16.12;100.00
23303;BME280;11820;48.738;9.092;2023-05-20T08:50:13;96254.50;;;16.11;100.00
23303;BME280;11820;48.738;9.092;2023-05-20T08:52:42;96253.47;;;16.00;100.00
23303;BME280;11820;48.738;9.092;2023-05-20T08:55:16;96246.78;;;16.16;100.00
23303;BME280;11820;48.738;9.092;2023-05-20T08:57:49;96248.81;;;16.14;100.00
23303;BME280;11820;48.738;9.092;2023-05-20T09:00:15;96245.06;;;16.32;100.00
23303;BME280;11820;48.738;9.092;2023-05-20T09:02:42;96239.06;;;16.43;100.00
23303;BME280;11820;48.738;9.092;2023-05-20T09:05:09;96234.72;;;16.60;100.00
23303;BME280;11820;48.738;9.092;2023-05-20T09:07:35;96235.72;;;16.71;100.00
23303;BME280;11820;48.738;9.092;2023-05-20T09:10:00;96238.53;;;16.69;100.00
23303;BME280;11820;48.738;9.092;2023-05-20T09:12:26;96223.34;;;16.66;100.00
23303;BME280;11820;48.738;9.092;2023-05-20T09:14:51;96220.97;;;16.65;100.00
23303;BME280;11820;48.738;9.092;2023-05-20T09:17:17;96227.38;;;16.85;100.00
23303;BME280;11820;48.738;9.092;2023-05-20T09:19:42;96218.50;;;16.86;100.00
23303;BME280;11820;48.738;9.092;2023-05-20T09:22:07;96217.47;;;16.87;100.00
23303;BME280;11820;48.738;9.092;2023-05-20T09:24:33;96221.25;;;17.08;100.00
23303;BME280;11820;48.738;9.092;2023-05-20T09:26:58;96217.34;;;17.22;100.00
23303;BME280;11820;48.738;9.092;2023-05-20T09:29:24;96219.16;;;17.49;100.00
23303;BME280;11820;48.738;9.092;2023-05-20T09:31:50;96226.66;;;17.46;100.00
23303;BME280;11820;48.738;9.092;2023-05-20T09:34:16;96213.91;;;17.66;100.00
23303;BME280;11820;48.738;9.092;2023-05-20T09:36:49;96218.03;;;17.78;100.00
23303;BME280;11820;48.738;9.092;2023-05-20T09:39:38;96219.75;;;17.89;100.00
23303;BME280;11820;48.738;9.092;2023-05-20T09:42:40;96216.72;;;17.97;100.00
23303;BME280;11820;48.738;9.092;2023-05-20T09:45:08;96221.03;;;18.03;100.00
23303;BME280;11820;48.738;9.092;2023-05-20T09:47:36;96216.38;;;18.26;100.00
23303;BME280;11820;48.738;9.092;2023-05-20T09:50:05;96214.38;;;17.96;100.00
23303;BME280;11820;48.738;9.092;2023-05-20T09:52:32;96212.88;;;17.50;100.00
23303;BME280;11820;48.738;9.092;2023-05-20T09:55:01;96217.00;;;17.79;100.00
23303;BME280;11820;48.738;9.092;2023-05-20T09:57:29;96210.19;;;18.16;100.00
23303;BME280;11820;48.738;9.092;2023-05-20T09:59:55;96210.50;;;18.19;100.00
23303;BME280;11820;48.738;9.092;2023-05-20T10:02:20;96208.31;;;18.28;100.00
23303;BME280;11820;48.738;9.092;2023-05-20T10:04:48;96196.25;;;18.10;100.00
23303;BME280;11820;48.738;9.092;2023-05-20T10:07:51;96202.34;;;18.16;100.00
23303;BME280;11820;48.738;9.092;2023-05-20T10:16:31;96180.38;;;18.81;100.00
23303;BME280;11820;48.738;9.092;2023-05-20T10:21:42;96172.88;;;18.90;100.00
23303;BME280;11820;48.738;9.092;2023-05-20T10:24:09;96175.09;;;19.03;100.00
23303;BME280;11820;48.738;9.092;2023-05-20T10:26:40;96184.06;;;19.07;100.00
23303;BME280;11820;48.738;9.092;2023-05-20T10:29:16;96186.13;;;19.05;100.00
23303;BME280;11820;48.738;9.092;2023-05-20T10:31:50;96181.84;;;19.20;100.00
23303;BME280;11820;48.738;9.092;2023-05-20T10:34:17;96181.19;;;19.35;100.00
23303;BME280;11820;48.738;9.092;2023-05-20T10:39:30;96183.28;;;19.11;100.00
23303;BME280;11820;48.738;9.092;2023-05-20T10:42:06;96190.34;;;19.32;100.00
23303;BME280;11820;48.738;9.092;2023-05-20T10:44:42;96172.75;;;19.64;100.00
23303;BME280;11820;48.738;9.092;2023-05-20T10:47:10;96173.41;;;19.45;100.00
23303;BME280;11820;48.738;9.092;2023-05-20T10:49:40;96171.97;;;19.64;100.00
23303;BME280;11820;48.738;9.092;2023-05-20T10:52:08;96167.41;;;19.85;100.00
23303;BME280;11820;48.738;9.092;2023-05-20T10:54:35;96170.63;;;19.97;100.00
23303;BME280;11820;48.738;9.092;2023-05-20T10:57:05;96165.00;;;20.20;100.00
23303;BME280;11820;48.738;9.092;2023-05-20T10:59:32;96162.34;;;20.15;100.00
23303;BME280;11820;48.738;9.092;2023-05-20T11:01:59;96152.63;;;20.16;100.00
23303;BME280;11820;48.738;9.092;2023-05-20T11:04:25;96152.34;;;20.07;100.00
23303;BME280;11820;48.738;9.092;2023-05-20T11:06:51;96143.25;;;20.35;100.00
23303;BME280;11820;48.738;9.092;2023-05-20T11:09:20;96138.44;;;20.12;100.00
23303;BME280;11820;48.738;9.092;2023-05-20T11:11:46;96145.03;;;20.19;100.00
23303;BME280;11820;48.738;9.092;2023-05-20T11:14:11;96136.00;;;20.67;100.00
23303;BME280;11820;48.738;9.092;2023-05-20T11:16:39;96129.38;;;20.44;100.00
23303;BME280;11820;48.738;9.092;2023-05-20T11:19:13;96135.16;;;20.46;100.00
23303;BME280;11820;48.738;9.092;2023-05-20T11:21:42;96130.72;;;20.57;100.00
23303;BME280;11820;48.738;9.092;2023-05-20T11:24:08;96128.38;;;20.65;100.00
23303;BME280;11820;48.738;9.092;2023-05-20T11:26:33;96116.81;;;20.66;100.00
23303;BME280;11820;48.738;9.092;2023-05-20T11:29:00;96118.91;;;20.59;100.00
23303;BME280;11820;48.738;9.092;2023-05-20T11:31:25;96121.50;;;20.44;100.00
23303;BME280;11820;48.738;9.092;2023-05-20T11:33:51;96121.56;;;20.69;100.00
23303;BME280;11820;48.738;9.092;2023-05-20T11:36:16;96124.78;;;21.01;100.00
23303;BME280;11820;48.738;9.092;2023-05-20T11:38:44;96125.06;;;21.00;100.00
23303;BME280;11820;48.738;9.092;2023-05-20T11:41:10;96116.84;;;20.71;100.00
23303;BME280;11820;48.738;9.092;2023-05-20T11:43:36;96109.47;;;20.73;100.00
23303;BME280;11820;48.738;9.092;2023-05-20T11:46:01;96113.88;;;20.43;100.00
23303;BME280;11820;48.738;9.092;2023-05-20T11:48:29;96112.63;;;20.60;100.00
23303;BME280;11820;48.738;9.092;2023-05-20T11:50:55;96120.16;;;20.37;100.00
23303;BME280;11820;48.738;9.092;2023-05-20T11:53:21;96124.03;;;20.19;100.00
23303;BME280;11820;48.738;9.092;2023-05-20T11:55:55;96115.31;;;20.14;100.00
23303;BME280;11820;48.738;9.092;2023-05-20T11:58:26;96103.81;;;20.20;100.00
23303;BME280;11820;48.738;9.092;2023-05-20T12:00:52;96107.22;;;20.25;100.00
23303;BME280;11820;48.738;9.092;2023-05-20T12:03:17;96107.22;;;20.25;100.00
23303;BME280;11820;48.738;9.092;2023-05-20T12:05:43;96108.88;;;20.51;100.00
23303;BME280;11820;48.738;9.092;2023-05-20T12:08:09;96103.69;;;20.76;100.00
23303;BME280;11820;48.738;9.092;2023-05-20T12:10:34;96101.13;;;21.21;100.00
23303;BME280;11820;48.738;9.092;2023-05-20T12:13:02;96099.03;;;21.43;100.00
23303;BME280;11820;48.738;9.092;2023-05-20T12:15:28;96090.59;;;21.61;100.00
23303;BME280;11820;48.738;9.092;2023-05-20T12:17:53;96086.28;;;22.00;100.00
23303;BME280;11820;48.738;9.092;2023-05-20T12:20:23;96078.66;;;21.98;100.00
23303;BME280;11820;48.738;9.092;2023-05-20T12:22:49;96077.50;;;22.29;100.00
23303;BME280;11820;48.738;9.092;2023-05-20T12:25:16;96064.53;;;22.43;100.00
23303;BME280;11820;48.738;9.092;2023-05-20T12:27:42;96068.78;;;22.39;100.00
23303;BME280;11820;48.738;9.092;2023-05-20T12:30:09;96068.25;;;22.27;100.00
23303;BME280;11820;48.738;9.092;2023-05-20T12:32:36;96069.91;;;22.18;100.00
23303;BME280;11820;48.738;9.092;2023-05-20T12:35:02;96077.09;;;22.56;100.00
23303;BME280;11820;48.738;9.092;2023-05-20T12:37:27;96067.31;;;22.61;100.00
23303;BME280;11820;48.738;9.092;2023-05-20T12:39:52;96073.06;;;22.73;100.00
23303;BME280;11820;48.738;9.092;2023-05-20T12:42:18;96074.50;;;22.51;100.00
23303;BME280;11820;48.738;9.092;2023-05-20T12:44:43;96067.75;;;22.25;100.00
23303;BME280;11820;48.738;9.092;2023-05-20T12:47:08;96063.41;;;22.54;100.00
23303;BME280;11820;48.738;9.092;2023-05-20T12:49:34;96078.03;;;22.26;100.00
23303;BME280;11820;48.738;9.092;2023-05-20T12:51:59;96071.63;;;21.84;100.00
23303;BME280;11820;48.738;9.092;2023-05-20T12:54:25;96073.16;;;21.90;100.00
23303;BME280;11820;48.738;9.092;2023-05-20T12:56:53;96066.88;;;21.86;100.00
23303;BME280;11820;48.738;9.092;2023-05-20T12:59:18;96063.66;;;21.99;100.00